createdAt,value
2022-10-05T03:57:47.289Z,4.80
2022-10-05T04:00:56.202Z,4.72
2022-10-05T04:04:04.294Z,5.05
2022-10-05T04:07:11.628Z,4.57
2022-10-05T04:10:49.413Z,5.62
2022-10-05T04:14:00.842Z,5.37
2022-10-05T04:17:09.854Z,5.37
2022-10-05T04:20:22.235Z,5.07
2022-10-05T04:23:50.711Z,5.50
2022-10-05T04:26:57.598Z,4.85
2022-10-05T04:30:09.195Z,5.43
2022-10-05T04:33:13.602Z,4.60
2022-10-05T04:36:24.611Z,5.10
2022-10-05T04:39:53.634Z,4.90
2022-10-05T04:43:17.358Z,4.65
2022-10-05T04:46:58.325Z,4.93
2022-10-05T04:50:20.402Z,4.93
2022-10-05T04:53:37.161Z,5.10
2022-10-05T04:56:51.775Z,5.55
2022-10-05T04:59:59.706Z,4.90
2022-10-05T05:03:39.281Z,5.00
2022-10-05T05:07:05.450Z,4.85
2022-10-05T05:10:32.426Z,5.20
2022-10-05T05:13:53.925Z,5.10
2022-10-05T05:17:15.067Z,5.93
2022-10-05T05:20:59.357Z,5.70
2022-10-05T05:24:20.507Z,6.85
2022-10-05T05:27:25.377Z,5.53
2022-10-05T05:30:43.670Z,5.30
2022-10-05T05:33:48.545Z,6.30
2022-10-05T05:37:04.172Z,5.50
2022-10-05T05:40:18.551Z,5.60
2022-10-05T05:43:35.863Z,6.70
2022-10-05T05:47:02.394Z,6.15
2022-10-05T05:50:10.312Z,6.93
2022-10-05T05:53:31.590Z,6.35
2022-10-05T05:56:45.236Z,6.78
2022-10-05T06:00:00.614Z,6.22
2022-10-05T06:03:18.943Z,6.05
2022-10-05T06:06:26.880Z,6.37
2022-10-05T06:09:37.981Z,6.35
2022-10-05T06:12:48.376Z,6.65
2022-10-05T06:15:57.887Z,6.40
2022-10-05T06:19:22.546Z,6.87
2022-10-05T06:22:38.747Z,6.65
2022-10-05T06:26:05.982Z,5.93
2022-10-05T06:29:19.113Z,6.68
2022-10-05T06:32:41.326Z,6.75
2022-10-05T06:35:55.185Z,7.07
2022-10-05T06:39:31.897Z,7.03
2022-10-05T06:43:05.430Z,6.78
2022-10-05T06:46:26.602Z,6.97
2022-10-05T06:49:53.469Z,7.32
2022-10-05T06:53:14.944Z,7.47
2022-10-05T06:56:25.511Z,8.35
2022-10-05T06:59:46.561Z,8.25
2022-10-05T07:02:54.560Z,8.23
2022-10-05T07:06:50.952Z,9.00
2022-10-05T07:10:22.222Z,8.98
2022-10-05T07:13:46.150Z,8.82
2022-10-05T07:17:07.093Z,9.75
2022-10-05T07:20:15.822Z,9.52
2022-10-05T07:23:32.754Z,10.25
2022-10-05T07:26:54.961Z,11.30
2022-10-05T07:30:00.965Z,10.27
2022-10-05T07:33:17.694Z,12.80
2022-10-05T07:36:59.273Z,9.80
2022-10-05T07:40:29.657Z,11.27
2022-10-05T07:44:02.358Z,9.35
2022-10-05T07:47:17.339Z,10.60
2022-10-05T07:50:29.580Z,10.88
2022-10-05T07:53:44.467Z,17.52
2022-10-05T07:57:18.819Z,13.55
2022-10-05T08:00:23.784Z,11.70
2022-10-05T08:03:58.231Z,24.02
2022-10-05T08:07:05.690Z,13.80
2022-10-05T08:10:18.450Z,11.82
2022-10-05T08:13:35.591Z,11.38
2022-10-05T08:16:38.497Z,11.65
2022-10-05T08:19:50.886Z,11.23
2022-10-05T08:23:18.759Z,10.73
2022-10-05T08:26:30.977Z,12.15
2022-10-05T08:29:56.502Z,15.32
2022-10-05T08:33:14.694Z,14.98
2022-10-05T08:36:24.055Z,14.35
2022-10-05T08:39:36.095Z,15.02
2022-10-05T08:42:58.702Z,14.70
2022-10-05T08:46:31.385Z,14.38
2022-10-05T08:50:04.236Z,12.77
2022-10-05T08:53:28.809Z,13.00
2022-10-05T08:56:56.045Z,11.95
2022-10-05T09:00:23.234Z,19.77
2022-10-05T09:04:01.970Z,12.90
2022-10-05T09:07:37.000Z,12.25
2022-10-05T09:10:59.377Z,13.93
2022-10-05T09:14:26.932Z,12.10
2022-10-05T09:17:43.147Z,12.55
2022-10-05T09:20:56.010Z,10.73
2022-10-05T09:24:13.286Z,10.57
2022-10-05T09:27:19.720Z,10.32
2022-10-05T09:31:03.755Z,9.60
2022-10-05T09:34:31.034Z,8.40
2022-10-05T09:37:53.578Z,9.82
2022-10-05T09:41:14.821Z,10.23
2022-10-05T09:44:54.626Z,10.25
2022-10-05T09:48:38.164Z,9.40
2022-10-05T09:52:20.648Z,10.13
2022-10-05T09:55:44.161Z,9.65
2022-10-05T09:59:19.036Z,9.50
2022-10-05T10:02:33.053Z,10.07
2022-10-05T10:06:10.446Z,9.82
2022-10-05T10:09:27.866Z,9.80
2022-10-05T10:13:02.529Z,9.63
2022-10-05T10:16:23.782Z,9.40
2022-10-05T10:19:57.834Z,9.27
2022-10-05T10:24:00.085Z,8.88
2022-10-05T10:27:16.415Z,8.82
2022-10-05T10:33:45.884Z,9.80
2022-10-05T10:36:51.280Z,7.45
2022-10-05T10:40:06.228Z,7.62
2022-10-05T10:43:45.809Z,8.65
2022-10-05T10:47:09.878Z,9.10
2022-10-05T10:50:28.244Z,8.30
2022-10-05T10:54:03.985Z,8.55
2022-10-05T11:00:22.243Z,7.82
2022-10-05T11:04:04.162Z,8.23
2022-10-05T11:07:24.943Z,8.45
2022-10-05T11:10:46.108Z,9.02
2022-10-05T11:14:21.195Z,9.43
2022-10-05T11:17:33.430Z,10.13
2022-10-05T11:20:49.289Z,10.23
2022-10-05T11:24:38.808Z,10.23
2022-10-05T11:27:59.487Z,10.80
2022-10-05T11:31:16.626Z,10.90
2022-10-05T11:34:48.613Z,10.75
2022-10-05T11:38:12.461Z,10.30
2022-10-05T11:41:44.143Z,10.63
2022-10-05T11:45:15.973Z,10.07
2022-10-05T11:48:30.137Z,9.30
2022-10-05T11:51:45.965Z,9.60
2022-10-05T11:55:10.266Z,9.23
2022-10-05T11:58:26.024Z,8.45
2022-10-05T12:01:46.658Z,8.50
2022-10-05T12:04:54.862Z,8.60
2022-10-05T12:08:03.573Z,7.68
2022-10-05T12:11:32.394Z,7.93
2022-10-05T12:15:19.009Z,7.57
2022-10-05T12:18:31.089Z,6.97
2022-10-05T12:21:56.180Z,7.15
2022-10-05T12:25:04.196Z,7.18
2022-10-05T12:28:13.078Z,6.28
2022-10-05T12:31:46.470Z,6.70
2022-10-05T12:35:29.686Z,6.30
2022-10-05T12:38:46.018Z,5.60
2022-10-05T12:42:00.094Z,5.72
2022-10-05T12:45:23.666Z,5.40
2022-10-05T12:48:31.500Z,4.93
2022-10-05T12:51:53.727Z,5.80
2022-10-05T12:55:11.184Z,4.10
2022-10-05T12:58:21.223Z,3.25
2022-10-05T13:01:49.293Z,3.20
2022-10-05T13:05:21.615Z,3.00
2022-10-05T13:08:50.989Z,3.25
2022-10-05T13:11:57.677Z,3.10
2022-10-05T13:15:16.762Z,2.70
2022-10-05T13:18:38.484Z,2.83
2022-10-05T13:21:49.517Z,4.15
2022-10-05T13:25:13.583Z,2.70
2022-10-05T13:28:36.516Z,3.37
2022-10-05T13:31:50.749Z,3.35
2022-10-05T13:35:06.727Z,2.60
2022-10-05T13:38:26.882Z,3.25
2022-10-05T13:41:28.860Z,2.80
2022-10-05T13:44:42.731Z,3.15
2022-10-05T13:48:19.830Z,3.03
2022-10-05T13:51:28.088Z,3.72
2022-10-05T13:55:06.777Z,3.55
2022-10-05T13:58:33.154Z,3.78
2022-10-05T14:01:47.646Z,4.10
2022-10-05T14:05:01.950Z,10.95
2022-10-05T14:08:04.137Z,5.25
2022-10-05T14:11:26.725Z,6.50
2022-10-05T14:14:50.042Z,7.25
2022-10-05T14:17:52.680Z,7.78
2022-10-05T14:21:16.841Z,6.00
2022-10-05T14:24:43.247Z,12.63
2022-10-05T14:27:54.798Z,7.35
2022-10-05T14:31:03.785Z,10.05
2022-10-05T14:34:24.833Z,5.93
2022-10-05T14:37:58.029Z,7.40
2022-10-05T14:41:27.897Z,6.40
2022-10-05T14:48:00.024Z,35.28
2022-10-05T14:51:03.292Z,15.57
2022-10-05T14:54:20.635Z,9.68
2022-10-05T14:57:37.426Z,7.15
2022-10-05T15:01:11.125Z,5.22
2022-10-05T15:04:25.292Z,6.62
2022-10-05T15:07:40.924Z,6.60
2022-10-05T15:10:50.901Z,6.45
2022-10-05T15:13:54.425Z,6.43
2022-10-05T15:17:20.470Z,17.15
2022-10-05T15:20:34.736Z,13.38
